Time;durP1;ratioP1;P1;durP2;ratioP2;P2;SDS_P1;SDS_P2;PMS_P1;PMS_P2;Temp;Humidity;BMP_temperature;BMP_pressure;BME280_temperature;BME280_humidity;BME280_pressure;Samples;Min_cycle;Max_cycle;Signal;HPM_P1;HPM_P2
2023/07/10 00:00:41;;;;;;;8.18;5.30;;;;;;;-140.66;100.00;55571.53;5115855;28;20053;-72
2023/07/10 00:03:29;;;;;;;10.85;5.80;;;;;;;-140.66;100.00;55571.53;5115049;28;20059;-72
2023/07/10 00:06:16;;;;;;;6.70;4.90;;;;;;;-140.66;100.00;55571.53;5100118;28;20027;-72
2023/07/10 00:09:02;;;;;;;6.00;5.10;;;;;;;-140.66;100.00;55571.53;5115345;28;20039;-73
2023/07/10 00:11:49;;;;;;;6.88;5.38;;;;;;;-140.66;100.00;55571.53;5114447;28;20027;-72
2023/07/10 00:14:35;;;;;;;8.10;5.15;;;;;;;-140.66;100.00;55571.53;5114442;28;20031;-73
2023/07/10 00:17:21;;;;;;;7.95;5.00;;;;;;;-140.66;100.00;55571.53;5114222;28;20047;-72
2023/07/10 00:20:19;;;;;;;7.18;5.32;;;;;;;-140.66;100.00;55571.53;5112666;28;20072;-74
2023/07/10 00:23:05;;;;;;;8.05;4.97;;;;;;;-140.66;100.00;55571.53;5113575;28;20367;-73
2023/07/10 00:25:50;;;;;;;10.07;5.35;;;;;;;-140.66;100.00;55571.53;5114792;28;20028;-73
2023/07/10 00:28:37;;;;;;;8.57;5.45;;;;;;;-140.66;100.00;55571.53;5114406;28;20023;-72
2023/07/10 00:31:27;;;;;;;21.83;6.03;;;;;;;-140.66;100.00;55571.53;5114002;28;20031;-73
2023/07/10 00:34:15;;;;;;;10.52;5.25;;;;;;;-140.66;100.00;55571.53;5132607;28;20031;-73
2023/07/10 00:37:00;;;;;;;12.02;5.10;;;;;;;-140.66;100.00;55571.53;5114406;28;20437;-72
2023/07/10 00:39:46;;;;;;;10.63;5.47;;;;;;;-140.66;100.00;55571.53;5120711;28;20031;-72
2023/07/10 00:42:32;;;;;;;8.30;4.65;;;;;;;-140.66;100.00;55571.53;5114525;28;20077;-74
2023/07/10 00:45:19;;;;;;;10.65;5.07;;;;;;;-140.66;100.00;55571.53;5113942;28;20030;-74
2023/07/10 00:48:30;;;;;;;15.57;5.00;;;;;;;-140.66;100.00;55571.53;5113931;28;20031;-72
2023/07/10 00:51:23;;;;;;;10.85;5.28;;;;;;;-140.66;100.00;55571.53;5099844;28;20436;-73
2023/07/10 00:54:27;;;;;;;10.27;5.15;;;;;;;-140.66;100.00;55571.53;5115177;28;20057;-73
2023/07/10 00:57:17;;;;;;;7.57;4.82;;;;;;;-140.66;100.00;55571.53;5099380;28;20431;-72
2023/07/10 01:00:33;;;;;;;7.90;4.75;;;;;;;-140.66;100.00;55571.53;5113207;28;20023;-73
2023/07/10 01:03:19;;;;;;;9.57;5.40;;;;;;;-140.66;100.00;55571.53;5111946;28;20046;-73
2023/07/10 01:06:31;;;;;;;6.63;4.95;;;;;;;-140.66;100.00;55571.53;5118056;28;20100;-73
2023/07/10 01:09:16;;;;;;;8.52;4.68;;;;;;;-140.66;100.00;55571.53;5117947;28;20016;-73
2023/07/10 01:12:05;;;;;;;8.82;5.50;;;;;;;-140.66;100.00;55571.53;5117600;28;20032;-72
2023/07/10 01:14:52;;;;;;;8.20;5.50;;;;;;;-140.66;100.00;55571.53;5117933;28;20023;-73
2023/07/10 01:17:38;;;;;;;6.28;4.80;;;;;;;-140.66;100.00;55571.53;5117355;28;20111;-73
2023/07/10 01:20:40;;;;;;;7.20;5.00;;;;;;;-140.66;100.00;55571.53;5117669;28;20043;-73
2023/07/10 01:23:26;;;;;;;8.52;4.90;;;;;;;-140.66;100.00;55571.53;5103086;28;20400;-73
2023/07/10 01:26:12;;;;;;;8.02;5.10;;;;;;;-140.66;100.00;55571.53;5118289;28;20051;-73
2023/07/10 01:28:59;;;;;;;6.57;5.05;;;;;;;-140.66;100.00;55571.53;5118330;28;20115;-72
2023/07/10 01:31:46;;;;;;;7.85;5.50;;;;;;;-140.66;100.00;55571.53;5118546;28;20023;-73
2023/07/10 01:34:38;;;;;;;8.15;5.15;;;;;;;-140.66;100.00;55571.53;5117117;28;20106;-73
2023/07/10 01:37:24;;;;;;;6.90;5.10;;;;;;;-140.66;100.00;55571.53;5118177;28;20035;-72
2023/07/10 01:40:16;;;;;;;8.95;5.28;;;;;;;-140.66;100.00;55571.53;5118301;28;20023;-72
2023/07/10 01:43:03;;;;;;;9.18;5.28;;;;;;;-140.66;100.00;55571.53;5117671;28;20196;-72
2023/07/10 01:45:49;;;;;;;12.73;5.53;;;;;;;-140.66;100.00;55571.53;5117327;28;20038;-74
2023/07/10 01:48:35;;;;;;;7.45;4.95;;;;;;;-140.66;100.00;55571.53;5117438;28;20412;-73
2023/07/10 01:51:22;;;;;;;7.05;5.68;;;;;;;-140.66;100.00;55571.53;5103362;28;20045;-73
2023/07/10 01:54:13;;;;;;;7.82;5.60;;;;;;;-140.66;100.00;55571.53;5117423;28;20027;-73
2023/07/10 01:56:59;;;;;;;7.63;5.32;;;;;;;-140.66;100.00;55571.53;5117325;28;20025;-73
2023/07/10 01:59:45;;;;;;;8.30;5.50;;;;;;;-140.66;100.00;55571.53;5116752;28;20051;-72
2023/07/10 02:02:31;;;;;;;6.90;5.32;;;;;;;-140.66;100.00;55571.53;5117310;28;20016;-73
2023/07/10 02:05:16;;;;;;;12.77;5.30;;;;;;;-140.66;100.00;55571.53;5117320;28;20100;-74
2023/07/10 02:08:02;;;;;;;8.15;5.10;;;;;;;-140.66;100.00;55571.53;5117978;28;20157;-72
2023/07/10 02:10:48;;;;;;;10.32;6.32;;;;;;;-140.66;100.00;55571.53;5117067;28;20023;-73
2023/07/10 02:13:34;;;;;;;8.73;6.35;;;;;;;-140.66;100.00;55571.53;5115479;28;20032;-73
2023/07/10 02:16:19;;;;;;;6.75;5.20;;;;;;;-140.66;100.00;55571.53;5102138;28;20476;-73
2023/07/10 02:19:05;;;;;;;8.80;5.70;;;;;;;-140.66;100.00;55571.53;5102473;28;20043;-73
2023/07/10 02:21:51;;;;;;;10.65;5.43;;;;;;;-140.66;100.00;55571.53;5116198;28;20060;-73
2023/07/10 02:24:37;;;;;;;11.40;5.60;;;;;;;-140.66;100.00;55571.53;5117334;28;20085;-73
2023/07/10 02:27:23;;;;;;;6.97;5.43;;;;;;;-140.66;100.00;55571.53;5116204;28;20379;-73
2023/07/10 02:30:09;;;;;;;9.40;5.40;;;;;;;-140.66;100.00;55571.53;5115893;28;20015;-73
2023/07/10 02:32:54;;;;;;;10.60;5.53;;;;;;;-140.66;100.00;55571.53;5116168;28;20430;-73
2023/07/10 02:35:40;;;;;;;7.78;5.70;;;;;;;-140.66;100.00;55571.53;5116862;28;20451;-72
2023/07/10 02:38:26;;;;;;;12.80;5.78;;;;;;;-140.66;100.00;55571.53;5116202;28;20401;-73
2023/07/10 02:41:12;;;;;;;7.10;5.55;;;;;;;-140.66;100.00;55571.53;5101466;28;20039;-72
2023/07/10 02:43:57;;;;;;;7.65;5.78;;;;;;;-140.66;100.00;55571.53;5115989;28;20023;-73
2023/07/10 02:46:43;;;;;;;8.63;5.68;;;;;;;-140.66;100.00;55571.53;5115889;28;20031;-73
2023/07/10 02:49:29;;;;;;;7.85;5.60;;;;;;;-140.66;100.00;55571.53;5116001;28;20380;-74
2023/07/10 02:52:15;;;;;;;9.77;5.40;;;;;;;-140.66;100.00;55571.53;5116081;28;20035;-73
2023/07/10 02:55:01;;;;;;;10.65;5.90;;;;;;;-140.66;100.00;55571.53;5115728;28;20031;-72
2023/07/10 02:57:46;;;;;;;8.52;5.97;;;;;;;-140.66;100.00;55571.53;5100220;28;20098;-73
2023/07/10 03:00:32;;;;;;;8.27;5.65;;;;;;;-140.66;100.00;55571.53;5115831;28;20031;-73
2023/07/10 03:03:18;;;;;;;8.38;5.95;;;;;;;-140.66;100.00;55571.53;5116261;28;20124;-73
2023/07/10 03:06:04;;;;;;;6.93;5.75;;;;;;;-140.66;100.00;55571.53;5115473;28;20316;-73
2023/07/10 03:08:50;;;;;;;7.03;5.68;;;;;;;-140.66;100.00;55571.53;5116541;28;20535;-73
2023/07/10 03:11:36;;;;;;;11.23;5.85;;;;;;;-140.66;100.00;55571.53;5114893;28;20024;-73
2023/07/10 03:14:21;;;;;;;6.78;5.40;;;;;;;-140.66;100.00;55571.53;5102458;28;20408;-73
2023/07/10 03:17:07;;;;;;;7.80;5.80;;;;;;;-140.66;100.00;55571.53;5115344;28;20027;-74
2023/07/10 03:19:53;;;;;;;10.63;5.60;;;;;;;-140.66;100.00;55571.53;5114870;28;20108;-73
2023/07/10 03:22:39;;;;;;;10.80;6.20;;;;;;;-140.66;100.00;55571.53;5114828;28;20404;-73
2023/07/10 03:25:24;;;;;;;8.30;5.72;;;;;;;-140.66;100.00;55571.53;5115211;28;20123;-73
2023/07/10 03:28:10;;;;;;;8.63;5.30;;;;;;;-140.66;100.00;55571.53;5098440;28;20023;-73
2023/07/10 03:30:58;;;;;;;9.77;5.72;;;;;;;-140.66;100.00;55571.53;5115332;28;20051;-72
2023/07/10 03:33:44;;;;;;;10.55;5.90;;;;;;;-140.66;100.00;55571.53;5101886;28;20114;-72
2023/07/10 03:36:30;;;;;;;10.20;6.13;;;;;;;-140.66;100.00;55571.53;5114592;28;20020;-73
2023/07/10 03:39:16;;;;;;;7.90;5.85;;;;;;;-140.66;100.00;55571.53;5115280;28;20020;-73
2023/07/10 03:42:02;;;;;;;13.50;6.38;;;;;;;-140.66;100.00;55571.53;5114873;28;20047;-73
2023/07/10 03:44:48;;;;;;;12.73;6.60;;;;;;;-140.66;100.00;55571.53;5114668;28;20506;-73
2023/07/10 03:47:34;;;;;;;10.95;6.10;;;;;;;-140.66;100.00;55571.53;5114866;28;20453;-72
2023/07/10 03:50:19;;;;;;;10.25;6.38;;;;;;;-140.66;100.00;55571.53;5113347;28;20432;-72
2023/07/10 03:53:05;;;;;;;7.95;6.05;;;;;;;-140.66;100.00;55571.53;5113638;28;20100;-74
2023/07/10 03:55:53;;;;;;;9.35;6.05;;;;;;;-140.66;100.00;55571.53;5114441;28;20525;-73
2023/07/10 03:58:42;;;;;;;9.93;5.88;;;;;;;-140.66;100.00;55571.53;5114591;28;20023;-72
2023/07/10 04:01:28;;;;;;;11.02;6.38;;;;;;;-140.66;100.00;55571.53;5114735;28;20368;-73
2023/07/10 04:04:13;;;;;;;11.15;6.13;;;;;;;-140.66;100.00;55571.53;5115365;28;20020;-73
2023/07/10 04:06:59;;;;;;;9.25;6.10;;;;;;;-140.66;100.00;55571.53;5099969;28;20023;-72
2023/07/10 04:09:45;;;;;;;8.75;5.82;;;;;;;-140.66;100.00;55571.53;5114374;28;20035;-72
2023/07/10 04:12:31;;;;;;;13.18;6.32;;;;;;;-140.66;100.00;55571.53;5099991;28;20059;-72
2023/07/10 04:15:16;;;;;;;10.75;6.43;;;;;;;-140.66;100.00;55571.53;5113954;28;20019;-72
2023/07/10 04:18:02;;;;;;;13.68;6.93;;;;;;;-140.66;100.00;55571.53;5113921;28;20027;-72
2023/07/10 04:20:48;;;;;;;9.57;5.90;;;;;;;-140.66;100.00;55571.53;5113561;28;20047;-73
2023/07/10 04:23:34;;;;;;;10.65;6.55;;;;;;;-140.66;100.00;55571.53;5101028;28;20032;-73
2023/07/10 04:26:24;;;;;;;8.73;5.95;;;;;;;-140.66;100.00;55571.53;5113886;28;20106;-73
2023/07/10 04:29:11;;;;;;;8.80;5.80;;;;;;;-140.66;100.00;55571.53;5099770;28;20194;-74
2023/07/10 04:31:57;;;;;;;10.73;6.50;;;;;;;-140.66;100.00;55571.53;5099113;28;20042;-73
2023/07/10 04:34:43;;;;;;;12.80;6.07;;;;;;;-140.66;100.00;55571.53;5114152;28;20118;-73
2023/07/10 04:37:28;;;;;;;8.50;6.13;;;;;;;-140.66;100.00;55571.53;5114348;28;20020;-73
2023/07/10 04:40:15;;;;;;;10.02;5.90;;;;;;;-140.66;100.00;55571.53;5126878;28;20083;-72
2023/07/10 04:43:02;;;;;;;18.30;6.30;;;;;;;-140.66;100.00;55571.53;5121717;28;20008;-72
2023/07/10 04:45:49;;;;;;;9.80;6.13;;;;;;;-140.66;100.00;55571.53;5125423;28;20019;-73
2023/07/10 04:48:34;;;;;;;14.63;6.28;;;;;;;-140.66;100.00;55571.53;5115060;28;20059;-73
2023/07/10 04:51:20;;;;;;;13.93;6.65;;;;;;;-140.66;100.00;55571.53;5114327;28;20027;-73
2023/07/10 04:54:06;;;;;;;9.75;6.03;;;;;;;-140.66;100.00;55571.53;5114641;28;20124;-73
2023/07/10 04:56:52;;;;;;;15.27;6.32;;;;;;;-140.66;100.00;55571.53;5114061;28;20022;-73
2023/07/10 04:59:38;;;;;;;9.18;6.80;;;;;;;-140.66;100.00;55571.53;5114851;28;20055;-73
2023/07/10 05:02:23;;;;;;;11.77;6.55;;;;;;;-140.66;100.00;55571.53;5113620;28;20125;-72
2023/07/10 05:05:09;;;;;;;11.93;6.50;;;;;;;-140.66;100.00;55571.53;5098672;28;20027;-73
2023/07/10 05:07:55;;;;;;;11.35;6.18;;;;;;;-140.66;100.00;55571.53;5114872;28;20023;-73
2023/07/10 05:10:43;;;;;;;12.27;6.43;;;;;;;-140.66;100.00;55571.53;5112963;28;20035;-73
2023/07/10 05:13:29;;;;;;;10.98;6.40;;;;;;;-140.66;100.00;55571.53;5114112;28;20035;-73
2023/07/10 05:16:15;;;;;;;13.65;6.80;;;;;;;-140.66;100.00;55571.53;5113827;28;20019;-73
2023/07/10 05:19:01;;;;;;;12.20;6.15;;;;;;;-140.66;100.00;55571.53;5114645;28;20078;-73
2023/07/10 05:21:47;;;;;;;9.88;5.90;;;;;;;-140.66;100.00;55571.53;5113685;28;20032;-73
2023/07/10 05:24:33;;;;;;;10.23;6.10;;;;;;;-140.66;100.00;55571.53;5114429;28;20027;-72
2023/07/10 05:27:19;;;;;;;11.05;6.07;;;;;;;-140.66;100.00;55571.53;5113401;28;20032;-72
2023/07/10 05:30:05;;;;;;;13.50;6.45;;;;;;;-140.66;100.00;55571.53;5113716;28;20467;-73
2023/07/10 05:32:51;;;;;;;12.63;6.43;;;;;;;-140.66;100.00;55571.53;5113549;28;20030;-73
2023/07/10 05:35:37;;;;;;;9.18;6.60;;;;;;;-140.66;100.00;55571.53;5099220;28;20063;-72
2023/07/10 05:38:25;;;;;;;8.77;6.88;;;;;;;-140.66;100.00;55571.53;5098293;28;20016;-73
2023/07/10 05:41:11;;;;;;;10.30;7.07;;;;;;;-140.66;100.00;55571.53;5113838;28;20110;-73
2023/07/10 05:43:56;;;;;;;11.35;6.68;;;;;;;-140.66;100.00;55571.53;5113946;28;20034;-73
2023/07/10 05:46:42;;;;;;;11.48;6.65;;;;;;;-140.66;100.00;55571.53;5113917;28;20165;-73
2023/07/10 05:49:28;;;;;;;8.40;6.90;;;;;;;-140.66;100.00;55571.53;5117600;28;20166;-73
2023/07/10 05:52:14;;;;;;;13.02;7.18;;;;;;;-140.66;100.00;55571.53;5117328;28;20024;-73
2023/07/10 05:54:59;;;;;;;17.08;7.80;;;;;;;-140.66;100.00;55571.53;5117064;28;20042;-73
2023/07/10 05:57:45;;;;;;;9.65;6.78;;;;;;;-140.66;100.00;55571.53;5117735;28;20020;-73
2023/07/10 06:00:31;;;;;;;12.50;7.18;;;;;;;-140.66;100.00;55571.53;5117271;28;20027;-73
2023/07/10 06:03:17;;;;;;;9.82;7.28;;;;;;;-140.66;100.00;55571.53;5116442;28;20034;-73
2023/07/10 06:06:05;;;;;;;10.63;7.10;;;;;;;-140.66;100.00;55571.53;5117146;28;20024;-73
2023/07/10 06:08:51;;;;;;;13.20;8.02;;;;;;;-140.66;100.00;55571.53;5101706;28;20023;-73
2023/07/10 06:11:37;;;;;;;10.00;7.82;;;;;;;-140.66;100.00;55571.53;5116625;28;20447;-73
2023/07/10 06:14:23;;;;;;;13.50;7.38;;;;;;;-140.66;100.00;55571.53;5116923;28;20034;-73
2023/07/10 06:17:09;;;;;;;10.43;7.00;;;;;;;-140.66;100.00;55571.53;5116602;28;20023;-73
2023/07/10 06:19:55;;;;;;;18.00;7.47;;;;;;;-140.66;100.00;55571.53;5115834;28;20428;-73
2023/07/10 06:22:41;;;;;;;12.20;7.70;;;;;;;-140.66;100.00;55571.53;5101389;28;20042;-73
2023/07/10 06:25:27;;;;;;;12.68;8.20;;;;;;;-140.66;100.00;55571.53;5115959;28;20038;-73
2023/07/10 06:28:13;;;;;;;13.82;8.05;;;;;;;-140.66;100.00;55571.53;5117225;28;20069;-74
2023/07/10 06:31:10;;;;;;;10.63;7.70;;;;;;;-140.66;100.00;55571.53;5117074;28;20027;-74
2023/07/10 06:33:56;;;;;;;8.82;7.45;;;;;;;-140.66;100.00;55571.53;5116821;28;20032;-73
2023/07/10 06:36:42;;;;;;;12.73;7.90;;;;;;;-140.66;100.00;55571.53;5116496;28;20027;-74
2023/07/10 06:39:28;;;;;;;11.88;7.50;;;;;;;-140.66;100.00;55571.53;5116527;28;20085;-73
2023/07/10 06:42:13;;;;;;;9.45;7.75;;;;;;;-140.66;100.00;55571.53;5116368;28;20024;-73
2023/07/10 06:44:59;;;;;;;10.07;6.95;;;;;;;-140.66;100.00;55571.53;5116284;28;20096;-73
2023/07/10 06:47:46;;;;;;;8.68;7.18;;;;;;;-140.66;100.00;55571.53;5116298;28;20055;-73
2023/07/10 06:50:31;;;;;;;9.35;7.03;;;;;;;-140.66;100.00;55571.53;5116766;28;20020;-71
2023/07/10 06:53:18;;;;;;;8.52;7.03;;;;;;;-140.66;100.00;55571.53;5139204;28;20051;-73
2023/07/10 06:56:05;;;;;;;14.68;7.10;;;;;;;-140.66;100.00;55571.53;5116677;28;20355;-72
2023/07/10 06:58:50;;;;;;;9.32;7.25;;;;;;;-140.66;100.00;55571.53;5116627;28;20336;-73
2023/07/10 07:01:36;;;;;;;9.88;7.10;;;;;;;-140.66;100.00;55571.53;5115766;28;20079;-74
2023/07/10 07:04:22;;;;;;;10.13;7.72;;;;;;;-140.66;100.00;55571.53;5116338;28;20035;-73
2023/07/10 07:07:08;;;;;;;9.60;6.97;;;;;;;-140.66;100.00;55571.53;5115757;28;20031;-72
2023/07/10 07:09:53;;;;;;;8.07;6.50;;;;;;;-140.66;100.00;55571.53;5105747;28;20023;-72
2023/07/10 07:12:41;;;;;;;8.73;6.65;;;;;;;-140.66;100.00;55571.53;5122600;28;20023;-74
2023/07/10 07:15:27;;;;;;;10.02;7.00;;;;;;;-140.66;100.00;55571.53;5115803;28;20083;-74
2023/07/10 07:18:13;;;;;;;15.90;6.82;;;;;;;-140.66;100.00;55571.53;5116476;28;20041;-73
2023/07/10 07:20:59;;;;;;;13.15;6.65;;;;;;;-140.66;100.00;55571.53;5115202;28;20141;-73
2023/07/10 07:23:45;;;;;;;10.27;6.75;;;;;;;-140.66;100.00;55571.53;5115609;28;20447;-72
2023/07/10 07:26:31;;;;;;;10.02;6.68;;;;;;;-140.66;100.00;55571.53;5115693;28;20031;-72
2023/07/10 07:29:17;;;;;;;10.55;6.50;;;;;;;-140.66;100.00;55571.53;5115843;28;20038;-72
2023/07/10 07:32:03;;;;;;;12.30;6.53;;;;;;;-140.66;100.00;55571.53;5115394;28;20027;-72
2023/07/10 07:34:49;;;;;;;7.75;6.13;;;;;;;-140.66;100.00;55571.53;5115902;28;20148;-71
2023/07/10 07:37:34;;;;;;;13.48;6.22;;;;;;;-140.66;100.00;55571.53;5114835;28;20016;-72
2023/07/10 07:40:20;;;;;;;9.10;7.00;;;;;;;-140.66;100.00;55571.53;5115154;28;20124;-72
2023/07/10 07:43:06;;;;;;;10.93;6.50;;;;;;;-140.66;100.00;55571.53;5114951;28;20020;-73
2023/07/10 07:45:56;;;;;;;9.55;6.50;;;;;;;-140.66;100.00;55571.53;5115272;28;20036;-72
2023/07/10 07:48:42;;;;;;;7.47;6.32;;;;;;;-140.66;100.00;55571.53;5115141;28;20114;-73
2023/07/10 07:51:29;;;;;;;8.43;6.85;;;;;;;-140.66;100.00;55571.53;5100178;28;20036;-72
2023/07/10 07:54:15;;;;;;;12.20;7.18;;;;;;;-140.66;100.00;55571.53;5115758;28;20027;-73
2023/07/10 07:57:01;;;;;;;10.05;6.70;;;;;;;-140.66;100.00;55571.53;5100718;28;20066;-72
2023/07/10 07:59:46;;;;;;;16.80;6.60;;;;;;;-140.66;100.00;55571.53;5114395;28;20028;-72
2023/07/10 08:02:32;;;;;;;9.52;6.72;;;;;;;-140.66;100.00;55571.53;5115026;28;20063;-72
2023/07/10 08:05:18;;;;;;;12.15;7.10;;;;;;;-140.66;100.00;55571.53;5114941;28;20027;-72
2023/07/10 08:08:05;;;;;;;10.32;6.65;;;;;;;-140.66;100.00;55571.53;5100100;28;20023;-72
2023/07/10 08:10:51;;;;;;;8.73;6.78;;;;;;;-140.66;100.00;55571.53;5113062;28;20019;-72
2023/07/10 08:13:37;;;;;;;12.07;6.85;;;;;;;-140.66;100.00;55571.53;5114647;28;20030;-72
2023/07/10 08:16:23;;;;;;;10.00;6.78;;;;;;;-140.66;100.00;55571.53;5115151;28;20035;-72
2023/07/10 08:19:08;;;;;;;7.85;6.55;;;;;;;-140.66;100.00;55571.53;5113190;28;20054;-74
2023/07/10 08:21:57;;;;;;;11.88;6.65;;;;;;;-140.66;100.00;55571.53;5114088;28;20038;-74
2023/07/10 08:24:43;;;;;;;10.07;6.00;;;;;;;-140.66;100.00;55571.53;5114580;28;20051;-74
2023/07/10 08:27:28;;;;;;;8.95;6.03;;;;;;;-140.66;100.00;55571.53;5114451;28;20066;-73
2023/07/10 08:30:15;;;;;;;8.52;6.00;;;;;;;-140.66;100.00;55571.53;5113865;28;20447;-73
2023/07/10 08:33:01;;;;;;;11.73;6.45;;;;;;;-140.66;100.00;55571.53;5115491;28;20034;-72
2023/07/10 08:35:58;;;;;;;11.77;6.30;;;;;;;-140.66;100.00;55571.53;5113941;28;20115;-73
2023/07/10 08:38:44;;;;;;;8.80;6.30;;;;;;;-140.66;100.00;55571.53;5114340;28;20020;-73
2023/07/10 08:41:30;;;;;;;9.18;6.00;;;;;;;-140.66;100.00;55571.53;5113156;28;20027;-72
2023/07/10 08:44:15;;;;;;;9.15;6.60;;;;;;;-140.66;100.00;55571.53;5114678;28;20115;-73
2023/07/10 08:47:10;;;;;;;14.93;6.75;;;;;;;-140.66;100.00;55571.53;5099068;28;20055;-73
2023/07/10 08:50:15;;;;;;;7.03;6.07;;;;;;;-140.66;100.00;55571.53;5099975;28;20110;-72
2023/07/10 08:53:12;;;;;;;7.53;6.00;;;;;;;-140.66;100.00;55571.53;5114232;28;20028;-74
2023/07/10 08:56:04;;;;;;;7.97;5.88;;;;;;;-140.66;100.00;55571.53;5114556;28;20028;-75
2023/07/10 08:58:53;;;;;;;11.65;5.97;;;;;;;-140.66;100.00;55571.53;5098806;28;20016;-75
2023/07/10 09:01:44;;;;;;;9.93;5.78;;;;;;;-140.66;100.00;55571.53;5115166;28;20089;-74
2023/07/10 09:04:31;;;;;;;14.02;6.15;;;;;;;-140.66;100.00;55571.53;5114586;28;20028;-75
2023/07/10 09:07:19;;;;;;;6.88;5.63;;;;;;;-140.66;100.00;55571.53;5114535;28;20019;-76
2023/07/10 09:10:07;;;;;;;10.38;5.57;;;;;;;-140.66;100.00;55571.53;5113853;28;20088;-76
2023/07/10 09:12:56;;;;;;;12.55;5.65;;;;;;;-140.66;100.00;55571.53;5114223;28;20356;-75
2023/07/10 09:15:52;;;;;;;13.02;6.80;;;;;;;-140.66;100.00;55571.53;5114761;28;20031;-75
2023/07/10 09:19:01;;;;;;;7.25;5.45;;;;;;;-140.66;100.00;55571.53;5113728;28;20047;-75
2023/07/10 09:21:47;;;;;;;11.98;5.88;;;;;;;-140.66;100.00;55571.53;5100354;28;20106;-75
2023/07/10 09:24:33;;;;;;;15.52;6.03;;;;;;;-140.66;100.00;55571.53;5118951;28;20423;-76
2023/07/10 09:27:18;;;;;;;10.98;5.35;;;;;;;-140.66;100.00;55571.53;5117102;28;20063;-75
2023/07/10 09:30:23;;;;;;;18.10;5.90;;;;;;;-140.66;100.00;55571.53;5117943;28;20115;-75
2023/07/10 09:33:10;;;;;;;7.40;5.20;;;;;;;-140.66;100.00;55571.53;5117870;28;20043;-76
2023/07/10 09:35:55;;;;;;;8.48;5.50;;;;;;;-140.66;100.00;55571.53;5117557;28;20529;-76
2023/07/10 09:38:49;;;;;;;6.78;5.22;;;;;;;-140.66;100.00;55571.53;5116166;28;20028;-75
2023/07/10 09:41:37;;;;;;;9.18;5.35;;;;;;;-140.66;100.00;55571.53;5115728;28;20034;-75
2023/07/10 09:44:23;;;;;;;8.13;5.20;;;;;;;-140.66;100.00;55571.53;5117811;28;20435;-75
2023/07/10 09:47:11;;;;;;;8.85;5.32;;;;;;;-140.66;100.00;55571.53;5118033;28;20023;-76
2023/07/10 09:50:00;;;;;;;10.07;5.88;;;;;;;-140.66;100.00;55571.53;5137302;28;20110;-75
2023/07/10 09:52:52;;;;;;;11.38;6.05;;;;;;;-140.66;100.00;55571.53;5119384;28;20020;-75
2023/07/10 09:55:43;;;;;;;8.80;5.15;;;;;;;-140.66;100.00;55571.53;5118204;28;20447;-76
2023/07/10 09:58:29;;;;;;;5.28;4.78;;;;;;;-140.66;100.00;55571.53;5117380;28;20031;-75
2023/07/10 10:01:15;;;;;;;9.07;5.40;;;;;;;-140.66;100.00;55571.53;5116930;28;20035;-75
2023/07/10 10:04:02;;;;;;;6.60;4.90;;;;;;;-140.66;100.00;55571.53;5117296;28;20081;-75
2023/07/10 10:06:56;;;;;;;11.60;5.90;;;;;;;-140.66;100.00;55571.53;5116669;28;20051;-74
2023/07/10 10:09:42;;;;;;;8.40;5.25;;;;;;;-140.66;100.00;55571.53;5124212;28;20016;-74
2023/07/10 10:12:34;;;;;;;15.48;5.93;;;;;;;-140.66;100.00;55571.53;5128125;28;20031;-75
2023/07/10 10:15:44;;;;;;;10.85;5.68;;;;;;;-140.66;100.00;55571.53;5103221;28;20093;-75
2023/07/10 10:18:50;;;;;;;9.02;5.20;;;;;;;-140.66;100.00;55571.53;5116472;28;20024;-74
2023/07/10 10:21:39;;;;;;;7.18;5.30;;;;;;;-140.66;100.00;55571.53;5115654;28;20024;-74
2023/07/10 10:24:29;;;;;;;8.57;5.40;;;;;;;-140.66;100.00;55571.53;5116983;28;20036;-75
2023/07/10 10:27:39;;;;;;;8.80;5.18;;;;;;;-140.66;100.00;55571.53;5116630;28;20409;-75
2023/07/10 10:30:38;;;;;;;9.40;5.38;;;;;;;-140.66;100.00;55571.53;5116783;28;20402;-75
2023/07/10 10:33:29;;;;;;;8.57;4.47;;;;;;;-140.66;100.00;55571.53;5116831;28;20027;-76
2023/07/10 10:36:20;;;;;;;12.13;4.80;;;;;;;-140.66;100.00;55571.53;5102574;28;20051;-75
2023/07/10 10:39:14;;;;;;;10.10;5.07;;;;;;;-140.66;100.00;55571.53;5116954;28;20019;-75
2023/07/10 10:42:08;;;;;;;7.30;4.93;;;;;;;-140.66;100.00;55571.53;5101872;28;20362;-75
2023/07/10 10:45:21;;;;;;;9.13;5.10;;;;;;;-140.66;100.00;55571.53;5116643;28;20015;-75
2023/07/10 10:48:27;;;;;;;7.43;5.00;;;;;;;-140.66;100.00;55571.53;5116499;28;20317;-75
2023/07/10 10:51:34;;;;;;;7.25;4.20;;;;;;;-140.66;100.00;55571.53;5115615;28;20448;-75
2023/07/10 10:54:27;;;;;;;8.38;4.30;;;;;;;-140.66;100.00;55571.53;5115993;28;20336;-75
2023/07/10 10:57:33;;;;;;;4.78;4.28;;;;;;;-140.66;100.00;55571.53;5116071;28;20428;-75
2023/07/10 11:00:47;;;;;;;6.07;4.40;;;;;;;-140.66;100.00;55571.53;5116175;28;20474;-75
2023/07/10 11:03:54;;;;;;;8.85;4.63;;;;;;;-140.66;100.00;55571.53;5115761;28;20100;-74
2023/07/10 11:06:54;;;;;;;6.18;4.78;;;;;;;-140.66;100.00;55571.53;5115679;28;20053;-75
2023/07/10 11:10:02;;;;;;;7.03;4.15;;;;;;;-140.66;100.00;55571.53;5116069;28;20031;-75
2023/07/10 11:12:47;;;;;;;9.15;4.80;;;;;;;-140.66;100.00;55571.53;5116602;28;20027;-74
2023/07/10 11:15:35;;;;;;;9.52;4.50;;;;;;;-140.66;100.00;55571.53;5116264;28;20368;-75
2023/07/10 11:18:22;;;;;;;7.97;4.35;;;;;;;-140.66;100.00;55571.53;5102288;28;20095;-75
2023/07/10 11:21:08;;;;;;;10.05;4.55;;;;;;;-140.66;100.00;55571.53;5100763;28;20054;-75
2023/07/10 11:23:54;;;;;;;6.78;4.43;;;;;;;-140.66;100.00;55571.53;5115333;28;20031;-75
2023/07/10 11:26:40;;;;;;;11.43;4.80;;;;;;;-140.66;100.00;55571.53;5101687;28;20028;-75
2023/07/10 11:29:34;;;;;;;6.63;4.15;;;;;;;-140.66;100.00;55571.53;5115205;28;20027;-74
2023/07/10 11:32:24;;;;;;;9.68;4.90;;;;;;;-140.66;100.00;55571.53;5114807;28;20370;-74
2023/07/10 11:35:18;;;;;;;8.52;4.75;;;;;;;-140.66;100.00;55571.53;5114657;28;20024;-75
2023/07/10 11:38:04;;;;;;;7.95;4.53;;;;;;;-140.66;100.00;55571.53;5101810;28;20030;-75
2023/07/10 11:40:50;;;;;;;7.72;4.88;;;;;;;-140.66;100.00;55571.53;5115244;28;20448;-75
2023/07/10 11:43:36;;;;;;;7.35;4.65;;;;;;;-140.66;100.00;55571.53;5115581;28;20059;-75
2023/07/10 11:46:27;;;;;;;8.75;4.72;;;;;;;-140.66;100.00;55571.53;5115219;28;20027;-76
2023/07/10 11:49:16;;;;;;;10.30;4.43;;;;;;;-140.66;100.00;55571.53;5115171;28;20031;-75
2023/07/10 11:52:08;;;;;;;10.27;4.55;;;;;;;-140.66;100.00;55571.53;5114845;28;20054;-74
2023/07/10 11:54:56;;;;;;;10.52;4.60;;;;;;;-140.66;100.00;55571.53;5115811;28;20089;-74
2023/07/10 11:57:42;;;;;;;6.30;4.43;;;;;;;-140.66;100.00;55571.53;5115588;28;20085;-74
2023/07/10 12:00:29;;;;;;;7.05;4.57;;;;;;;-140.66;100.00;55571.53;5113657;28;20035;-74
2023/07/10 12:03:15;;;;;;;10.30;4.93;;;;;;;-140.66;100.00;55571.53;5115627;28;20028;-74
2023/07/10 12:06:01;;;;;;;11.63;4.72;;;;;;;-140.66;100.00;55571.53;5114119;28;20038;-74
2023/07/10 12:08:49;;;;;;;7.07;4.47;;;;;;;-140.66;100.00;55571.53;5114843;28;20038;-74
2023/07/10 12:11:39;;;;;;;8.27;4.80;;;;;;;-140.66;100.00;55571.53;5099107;28;20028;-75
2023/07/10 12:14:28;;;;;;;11.05;5.13;;;;;;;-140.66;100.00;55571.53;5115461;28;20062;-74
2023/07/10 12:17:17;;;;;;;10.00;4.95;;;;;;;-140.66;100.00;55571.53;5115050;28;20023;-74
2023/07/10 12:20:13;;;;;;;9.15;4.20;;;;;;;-140.66;100.00;55571.53;5113972;28;20464;-74
2023/07/10 12:23:13;;;;;;;5.57;4.30;;;;;;;-140.66;100.00;55571.53;5115274;28;20035;-74
2023/07/10 12:26:00;;;;;;;10.55;4.80;;;;;;;-140.66;100.00;55571.53;5114259;28;20028;-74
2023/07/10 12:28:46;;;;;;;12.25;4.90;;;;;;;-140.66;100.00;55571.53;5112824;28;20036;-75
2023/07/10 12:31:32;;;;;;;18.85;5.10;;;;;;;-140.66;100.00;55571.53;5113656;28;20088;-73
2023/07/10 12:34:26;;;;;;;6.95;4.53;;;;;;;-140.66;100.00;55571.53;5115438;28;20062;-75
2023/07/10 12:37:15;;;;;;;11.63;4.53;;;;;;;-140.66;100.00;55571.53;5114741;28;20114;-74
2023/07/10 12:40:01;;;;;;;17.42;5.40;;;;;;;-140.66;100.00;55571.53;5099752;28;20030;-75
2023/07/10 12:42:47;;;;;;;8.48;4.88;;;;;;;-140.66;100.00;55571.53;5114499;28;20028;-75